OPA Logo
 
ASOS:
At:2020.06.19 1855 UTC
Wind:Variable @ 10KT
Viz: 10 mile(s)
Sky: clear
Temp: 80 F (27 C)
DewP: 35 F (2 C)
RH: 19%
Baro: 30.03 in.
ob: KBDN 191855Z AUTO VRB05G10KT 10SM CLR 27/02 A3003 RMK AO2

ASOS: KRDM
At:2020.06.19 1756 UTC
Wind:
Viz: 10 mile(s)
Sky: clear
Temp: 77.0 F (25.0 C)
DewP: 37.9 F (3.3 C)
RH: 24%
Baro: 30.02 in.
ob: KRDM 191756Z 00000KT 10SM CLR 25/03 A3002 RMK AO2 SLP141 T02500033 10256 20083 58012
Apache-SSL Logo

Valid HTML 4.01!

Rent Increase 2020 Documents

Our Cause

"The City of Bend has failed to meet the regulatory requirements of FAA Airport Compliance Manual - Order 5190.6B Chapter 18 "Airport Rates and Charges", and City of Bend Code 12.15.005 Resolution, "The fee shall not exceed the average cost of providing service"; when it established new airport rents and fees scheduled to start 8/1/2020. Therefore the new rates and fees are invalid and are hereby formally contested in accordance with FAA Airport Compliance Manual - Order 5190.6B Chapter 18.6 Local Negotiation and Resolution."

August 3 Meeting

6:30 pm August 3, Meeting Agenda

6:30 pm August 3, Meeting Notice

The Bulletin

August 2: Bend Airport tenants frustrated after city's rent increase "City says rent hike is justified, need for airport to be self-sustaining"

AOPA news

July 22: PILOTS FIGHT FEE INCREASES AT BEND, OREGON, AIRPORT

KTVZ news

July 23: Bend airport businesses object to rent hike

Bend City Council

July 23: City Council video (Slow link). Public Comments start at 40:30.

June 17: The fee resolution railing the rates: Bud-E-Full Fees Resolution 2020-06-17.

At the top: " Bend Code section 12.15.005 states that the City Council may, by resolution, establish and amend fees or service charges (collectively “fees”) for any and all services provided by the City. The fee shall not exceed the average cost of providing the service."

The dirty deed in Section 6.4 on page 21.

2 April 2020: 2020 Rent Appraisal

6 March 2015: 2015 Rent Appraisal

FAA

FAA Airport Compliance Manual Order 5190.6B Chapter 18 "Airport Rates and Charges"

Comparable Rents

BDN_comparables.xlsx

Tenant Fees Discussions

Tenant_Fees_Discussion_20Jul20_With_Comments.pdf

Renter's Contacts

contact.xlsx


Web page by: gem@rellim.com